sensor_id;sensor_type;location;lat;lon;timestamp;temperature;humidity
16076;DHT22;8142;48.242;11.644;2023-07-20T00:00:56;21.90;99.90
16076;DHT22;8142;48.242;11.644;2023-07-20T00:03:22;21.80;99.90
16076;DHT22;8142;48.242;11.644;2023-07-20T00:05:51;21.80;99.90
16076;DHT22;8142;48.242;11.644;2023-07-20T00:08:17;21.80;99.90
16076;DHT22;8142;48.242;11.644;2023-07-20T00:10:44;21.80;99.90
16076;DHT22;8142;48.242;11.644;2023-07-20T00:13:11;21.80;99.90
16076;DHT22;8142;48.242;11.644;2023-07-20T00:15:37;21.80;99.90
16076;DHT22;8142;48.242;11.644;2023-07-20T00:18:06;21.80;99.90
16076;DHT22;8142;48.242;11.644;2023-07-20T00:20:32;21.80;99.90
16076;DHT22;8142;48.242;11.644;2023-07-20T00:22:58;21.80;99.90
16076;DHT22;8142;48.242;11.644;2023-07-20T00:25:25;21.80;99.90
16076;DHT22;8142;48.242;11.644;2023-07-20T00:27:51;21.80;99.90
16076;DHT22;8142;48.242;11.644;2023-07-20T00:30:17;21.80;99.90
16076;DHT22;8142;48.242;11.644;2023-07-20T00:32:44;21.80;99.90
16076;DHT22;8142;48.242;11.644;2023-07-20T00:35:11;21.80;99.90
16076;DHT22;8142;48.242;11.644;2023-07-20T00:37:39;21.80;99.90
16076;DHT22;8142;48.242;11.644;2023-07-20T00:40:05;21.80;99.90
16076;DHT22;8142;48.242;11.644;2023-07-20T00:42:33;21.80;99.90
16076;DHT22;8142;48.242;11.644;2023-07-20T00:44:59;21.80;99.90
16076;DHT22;8142;48.242;11.644;2023-07-20T00:47:27;21.80;99.90
16076;DHT22;8142;48.242;11.644;2023-07-20T00:49:53;21.70;99.90
16076;DHT22;8142;48.242;11.644;2023-07-20T00:52:21;21.80;99.90
16076;DHT22;8142;48.242;11.644;2023-07-20T00:54:47;21.70;99.90
16076;DHT22;8142;48.242;11.644;2023-07-20T00:57:15;21.70;99.90
16076;DHT22;8142;48.242;11.644;2023-07-20T00:59:41;21.70;99.90
16076;DHT22;8142;48.242;11.644;2023-07-20T01:02:07;21.70;99.90
16076;DHT22;8142;48.242;11.644;2023-07-20T01:04:35;21.70;99.90
16076;DHT22;8142;48.242;11.644;2023-07-20T01:07:17;21.70;99.90
16076;DHT22;8142;48.242;11.644;2023-07-20T01:12:43;21.70;99.90
16076;DHT22;8142;48.242;11.644;2023-07-20T01:15:09;21.60;99.90
16076;DHT22;8142;48.242;11.644;2023-07-20T01:17:35;21.60;99.90
16076;DHT22;8142;48.242;11.644;2023-07-20T01:20:02;21.60;99.90
16076;DHT22;8142;48.242;11.644;2023-07-20T01:31:24;21.60;99.90
16076;DHT22;8142;48.242;11.644;2023-07-20T01:33:52;21.60;99.90
16076;DHT22;8142;48.242;11.644;2023-07-20T01:36:22;21.60;99.90
16076;DHT22;8142;48.242;11.644;2023-07-20T01:38:49;21.60;99.90
16076;DHT22;8142;48.242;11.644;2023-07-20T01:41:15;21.50;99.90
16076;DHT22;8142;48.242;11.644;2023-07-20T01:43:42;21.60;99.90
16076;DHT22;8142;48.242;11.644;2023-07-20T01:46:08;21.50;99.90
16076;DHT22;8142;48.242;11.644;2023-07-20T01:48:34;21.50;99.90
16076;DHT22;8142;48.242;11.644;2023-07-20T01:51:00;21.60;99.90
16076;DHT22;8142;48.242;11.644;2023-07-20T01:53:26;21.50;99.90
16076;DHT22;8142;48.242;11.644;2023-07-20T01:55:56;21.50;99.90
16076;DHT22;8142;48.242;11.644;2023-07-20T01:58:22;21.50;99.90
16076;DHT22;8142;48.242;11.644;2023-07-20T02:00:48;21.50;99.90
16076;DHT22;8142;48.242;11.644;2023-07-20T02:03:13;21.50;99.90
16076;DHT22;8142;48.242;11.644;2023-07-20T02:05:42;21.50;99.90
16076;DHT22;8142;48.242;11.644;2023-07-20T02:08:08;21.50;99.90
16076;DHT22;8142;48.242;11.644;2023-07-20T02:10:34;21.50;99.90
16076;DHT22;8142;48.242;11.644;2023-07-20T02:13:01;21.50;99.90
16076;DHT22;8142;48.242;11.644;2023-07-20T02:15:27;21.50;99.90
16076;DHT22;8142;48.242;11.644;2023-07-20T02:17:54;21.50;99.90
16076;DHT22;8142;48.242;11.644;2023-07-20T02:20:20;21.50;99.90
16076;DHT22;8142;48.242;11.644;2023-07-20T02:22:46;21.50;99.90
16076;DHT22;8142;48.242;11.644;2023-07-20T02:25:12;21.50;99.90
16076;DHT22;8142;48.242;11.644;2023-07-20T02:27:38;21.50;99.90
16076;DHT22;8142;48.242;11.644;2023-07-20T02:30:05;21.50;99.90
16076;DHT22;8142;48.242;11.644;2023-07-20T02:32:31;21.50;99.90
16076;DHT22;8142;48.242;11.644;2023-07-20T02:34:57;21.50;99.90
16076;DHT22;8142;48.242;11.644;2023-07-20T02:37:24;21.50;99.90
16076;DHT22;8142;48.242;11.644;2023-07-20T02:39:50;21.50;99.90
16076;DHT22;8142;48.242;11.644;2023-07-20T02:42:16;21.50;99.90
16076;DHT22;8142;48.242;11.644;2023-07-20T02:44:43;21.50;99.90
16076;DHT22;8142;48.242;11.644;2023-07-20T02:47:09;21.50;99.90
16076;DHT22;8142;48.242;11.644;2023-07-20T02:49:35;21.50;99.90
16076;DHT22;8142;48.242;11.644;2023-07-20T02:52:01;21.50;99.90
16076;DHT22;8142;48.242;11.644;2023-07-20T02:54:29;21.50;99.90
16076;DHT22;8142;48.242;11.644;2023-07-20T02:56:56;21.50;99.90
16076;DHT22;8142;48.242;11.644;2023-07-20T02:59:22;21.50;99.90
16076;DHT22;8142;48.242;11.644;2023-07-20T03:01:48;21.50;99.90
16076;DHT22;8142;48.242;11.644;2023-07-20T03:04:14;21.40;99.90
16076;DHT22;8142;48.242;11.644;2023-07-20T03:06:40;21.30;99.90
16076;DHT22;8142;48.242;11.644;2023-07-20T03:09:06;21.20;99.90
16076;DHT22;8142;48.242;11.644;2023-07-20T03:11:32;21.10;99.90
16076;DHT22;8142;48.242;11.644;2023-07-20T03:13:59;21.00;99.90
16076;DHT22;8142;48.242;11.644;2023-07-20T03:16:25;21.00;99.90
16076;DHT22;8142;48.242;11.644;2023-07-20T03:18:52;20.90;99.90
16076;DHT22;8142;48.242;11.644;2023-07-20T03:21:18;20.80;99.90
16076;DHT22;8142;48.242;11.644;2023-07-20T03:23:44;20.70;99.90
16076;DHT22;8142;48.242;11.644;2023-07-20T03:26:10;20.70;99.90
16076;DHT22;8142;48.242;11.644;2023-07-20T03:28:37;20.60;99.90
16076;DHT22;8142;48.242;11.644;2023-07-20T03:31:04;20.60;99.90
16076;DHT22;8142;48.242;11.644;2023-07-20T03:33:31;20.70;99.90
16076;DHT22;8142;48.242;11.644;2023-07-20T03:35:57;20.70;99.90
16076;DHT22;8142;48.242;11.644;2023-07-20T03:38:25;20.70;99.90
16076;DHT22;8142;48.242;11.644;2023-07-20T03:40:53;20.70;99.90
16076;DHT22;8142;48.242;11.644;2023-07-20T03:43:19;20.80;99.90
16076;DHT22;8142;48.242;11.644;2023-07-20T03:45:45;20.80;99.90
16076;DHT22;8142;48.242;11.644;2023-07-20T03:48:11;20.80;99.90
16076;DHT22;8142;48.242;11.644;2023-07-20T03:50:38;20.90;99.90
16076;DHT22;8142;48.242;11.644;2023-07-20T03:53:03;20.90;99.90
16076;DHT22;8142;48.242;11.644;2023-07-20T03:55:30;20.90;99.90
16076;DHT22;8142;48.242;11.644;2023-07-20T03:57:56;20.90;99.90
16076;DHT22;8142;48.242;11.644;2023-07-20T04:00:22;21.00;99.90
16076;DHT22;8142;48.242;11.644;2023-07-20T04:02:49;21.00;99.90
16076;DHT22;8142;48.242;11.644;2023-07-20T04:05:15;21.00;99.90
16076;DHT22;8142;48.242;11.644;2023-07-20T04:07:41;21.00;99.90
16076;DHT22;8142;48.242;11.644;2023-07-20T04:10:07;21.00;99.90
16076;DHT22;8142;48.242;11.644;2023-07-20T04:12:33;21.00;99.90
16076;DHT22;8142;48.242;11.644;2023-07-20T04:14:59;21.00;99.90
16076;DHT22;8142;48.242;11.644;2023-07-20T04:17:25;21.00;99.90
16076;DHT22;8142;48.242;11.644;2023-07-20T04:19:50;21.00;99.90
16076;DHT22;8142;48.242;11.644;2023-07-20T04:22:16;21.00;99.90
16076;DHT22;8142;48.242;11.644;2023-07-20T04:24:43;21.00;99.90
16076;DHT22;8142;48.242;11.644;2023-07-20T04:27:08;21.00;99.90
16076;DHT22;8142;48.242;11.644;2023-07-20T04:29:34;21.00;99.90
16076;DHT22;8142;48.242;11.644;2023-07-20T04:32:00;21.00;99.90
16076;DHT22;8142;48.242;11.644;2023-07-20T04:34:26;21.00;99.90
16076;DHT22;8142;48.242;11.644;2023-07-20T04:36:52;21.10;99.90
16076;DHT22;8142;48.242;11.644;2023-07-20T04:39:18;21.00;99.90
16076;DHT22;8142;48.242;11.644;2023-07-20T04:41:44;21.00;99.90
16076;DHT22;8142;48.242;11.644;2023-07-20T04:44:10;21.00;99.90
16076;DHT22;8142;48.242;11.644;2023-07-20T04:46:36;21.00;99.90
16076;DHT22;8142;48.242;11.644;2023-07-20T04:49:02;21.00;99.90
16076;DHT22;8142;48.242;11.644;2023-07-20T04:51:28;21.00;99.90
16076;DHT22;8142;48.242;11.644;2023-07-20T04:53:55;21.00;99.90
16076;DHT22;8142;48.242;11.644;2023-07-20T04:56:22;21.00;99.90
16076;DHT22;8142;48.242;11.644;2023-07-20T04:58:49;21.00;99.90
16076;DHT22;8142;48.242;11.644;2023-07-20T05:01:14;21.00;99.90
16076;DHT22;8142;48.242;11.644;2023-07-20T05:03:40;21.10;99.90
16076;DHT22;8142;48.242;11.644;2023-07-20T05:06:06;21.10;99.90
16076;DHT22;8142;48.242;11.644;2023-07-20T05:08:32;21.20;99.90
16076;DHT22;8142;48.242;11.644;2023-07-20T05:10:59;21.20;99.90
16076;DHT22;8142;48.242;11.644;2023-07-20T05:13:25;21.30;99.90
16076;DHT22;8142;48.242;11.644;2023-07-20T05:15:52;21.30;99.90
16076;DHT22;8142;48.242;11.644;2023-07-20T05:18:19;21.40;99.90
16076;DHT22;8142;48.242;11.644;2023-07-20T05:20:50;21.50;99.90
16076;DHT22;8142;48.242;11.644;2023-07-20T05:23:18;21.50;99.90
16076;DHT22;8142;48.242;11.644;2023-07-20T05:25:44;21.60;99.90
16076;DHT22;8142;48.242;11.644;2023-07-20T05:28:10;21.70;99.90
16076;DHT22;8142;48.242;11.644;2023-07-20T05:30:36;21.70;99.90
16076;DHT22;8142;48.242;11.644;2023-07-20T05:33:02;21.80;99.90
16076;DHT22;8142;48.242;11.644;2023-07-20T05:35:27;21.80;99.90
16076;DHT22;8142;48.242;11.644;2023-07-20T05:37:53;21.80;99.90
16076;DHT22;8142;48.242;11.644;2023-07-20T05:40:19;21.90;99.90
16076;DHT22;8142;48.242;11.644;2023-07-20T05:42:47;21.90;99.90
16076;DHT22;8142;48.242;11.644;2023-07-20T05:45:14;21.90;99.90
16076;DHT22;8142;48.242;11.644;2023-07-20T05:47:41;21.80;99.80
16076;DHT22;8142;48.242;11.644;2023-07-20T05:50:08;21.90;99.90
16076;DHT22;8142;48.242;11.644;2023-07-20T05:52:34;21.90;99.90
16076;DHT22;8142;48.242;11.644;2023-07-20T05:55:00;21.90;98.80
16076;DHT22;8142;48.242;11.644;2023-07-20T05:57:26;21.80;97.90
16076;DHT22;8142;48.242;11.644;2023-07-20T05:59:52;21.70;97.60
16076;DHT22;8142;48.242;11.644;2023-07-20T06:02:18;21.60;97.70
16076;DHT22;8142;48.242;11.644;2023-07-20T06:04:44;21.50;97.70
16076;DHT22;8142;48.242;11.644;2023-07-20T06:07:10;21.40;97.90
16076;DHT22;8142;48.242;11.644;2023-07-20T06:09:36;21.30;99.00
16076;DHT22;8142;48.242;11.644;2023-07-20T06:12:02;21.40;99.40
16076;DHT22;8142;48.242;11.644;2023-07-20T06:14:28;21.50;99.20
16076;DHT22;8142;48.242;11.644;2023-07-20T06:16:54;21.70;98.90
16076;DHT22;8142;48.242;11.644;2023-07-20T06:19:20;21.90;98.60
16076;DHT22;8142;48.242;11.644;2023-07-20T06:21:48;22.10;97.80
16076;DHT22;8142;48.242;11.644;2023-07-20T06:24:16;22.40;97.40
16076;DHT22;8142;48.242;11.644;2023-07-20T06:26:42;22.50;97.10
16076;DHT22;8142;48.242;11.644;2023-07-20T06:29:08;22.70;96.80
16076;DHT22;8142;48.242;11.644;2023-07-20T06:31:37;22.90;96.60
16076;DHT22;8142;48.242;11.644;2023-07-20T06:34:03;23.10;96.20
16076;DHT22;8142;48.242;11.644;2023-07-20T06:36:29;23.30;95.90
16076;DHT22;8142;48.242;11.644;2023-07-20T06:38:55;23.60;95.30
16076;DHT22;8142;48.242;11.644;2023-07-20T06:41:22;23.80;95.10
16076;DHT22;8142;48.242;11.644;2023-07-20T06:43:47;24.10;95.70
16076;DHT22;8142;48.242;11.644;2023-07-20T06:46:14;24.30;94.20
16076;DHT22;8142;48.242;11.644;2023-07-20T06:48:40;24.40;94.20
16076;DHT22;8142;48.242;11.644;2023-07-20T06:51:06;24.50;94.10
16076;DHT22;8142;48.242;11.644;2023-07-20T06:53:32;24.50;93.80
16076;DHT22;8142;48.242;11.644;2023-07-20T06:55:58;24.50;93.70
16076;DHT22;8142;48.242;11.644;2023-07-20T06:58:24;24.60;93.60
16076;DHT22;8142;48.242;11.644;2023-07-20T07:00:50;24.60;93.80
16076;DHT22;8142;48.242;11.644;2023-07-20T07:03:16;24.50;93.60
16076;DHT22;8142;48.242;11.644;2023-07-20T07:05:43;24.60;94.00
16076;DHT22;8142;48.242;11.644;2023-07-20T07:08:10;24.70;93.60
16076;DHT22;8142;48.242;11.644;2023-07-20T07:10:36;24.90;93.30
16076;DHT22;8142;48.242;11.644;2023-07-20T07:13:02;25.10;92.60
16076;DHT22;8142;48.242;11.644;2023-07-20T07:15:29;25.40;92.50
16076;DHT22;8142;48.242;11.644;2023-07-20T07:17:55;25.60;91.90
16076;DHT22;8142;48.242;11.644;2023-07-20T07:20:22;25.90;90.80
16076;DHT22;8142;48.242;11.644;2023-07-20T07:22:50;26.00;90.30
16076;DHT22;8142;48.242;11.644;2023-07-20T07:25:16;26.10;90.20
16076;DHT22;8142;48.242;11.644;2023-07-20T07:27:42;26.30;92.70
16076;DHT22;8142;48.242;11.644;2023-07-20T07:30:08;26.30;92.10
16076;DHT22;8142;48.242;11.644;2023-07-20T07:32:37;26.30;90.70
16076;DHT22;8142;48.242;11.644;2023-07-20T07:35:04;26.20;90.40
16076;DHT22;8142;48.242;11.644;2023-07-20T07:37:30;26.10;90.60
16076;DHT22;8142;48.242;11.644;2023-07-20T07:39:56;26.00;90.70
16076;DHT22;8142;48.242;11.644;2023-07-20T07:42:23;25.90;91.00
16076;DHT22;8142;48.242;11.644;2023-07-20T07:44:49;25.80;91.00
16076;DHT22;8142;48.242;11.644;2023-07-20T07:47:15;25.70;91.00
16076;DHT22;8142;48.242;11.644;2023-07-20T07:49:41;25.50;91.00
16076;DHT22;8142;48.242;11.644;2023-07-20T07:52:07;25.40;91.00
16076;DHT22;8142;48.242;11.644;2023-07-20T07:54:33;25.30;91.00
16076;DHT22;8142;48.242;11.644;2023-07-20T07:56:58;25.20;95.10
16076;DHT22;8142;48.242;11.644;2023-07-20T07:59:24;25.10;95.20
16076;DHT22;8142;48.242;11.644;2023-07-20T08:01:50;25.10;91.30
16076;DHT22;8142;48.242;11.644;2023-07-20T08:04:16;25.00;90.70
16076;DHT22;8142;48.242;11.644;2023-07-20T08:06:42;25.00;89.20
16076;DHT22;8142;48.242;11.644;2023-07-20T08:09:08;25.00;90.00
16076;DHT22;8142;48.242;11.644;2023-07-20T08:11:33;24.90;90.20
16076;DHT22;8142;48.242;11.644;2023-07-20T08:14:00;24.90;90.50
16076;DHT22;8142;48.242;11.644;2023-07-20T08:16:26;24.90;90.80
16076;DHT22;8142;48.242;11.644;2023-07-20T08:18:59;24.90;90.80
16076;DHT22;8142;48.242;11.644;2023-07-20T08:21:25;24.90;90.40
16076;DHT22;8142;48.242;11.644;2023-07-20T08:23:51;24.90;90.80
16076;DHT22;8142;48.242;11.644;2023-07-20T08:26:17;25.00;92.50
16076;DHT22;8142;48.242;11.644;2023-07-20T08:28:48;25.00;95.10
16076;DHT22;8142;48.242;11.644;2023-07-20T08:31:13;25.10;91.70
16076;DHT22;8142;48.242;11.644;2023-07-20T08:33:39;25.10;91.20
16076;DHT22;8142;48.242;11.644;2023-07-20T08:36:05;25.20;90.70
16076;DHT22;8142;48.242;11.644;2023-07-20T08:38:31;25.20;90.70
16076;DHT22;8142;48.242;11.644;2023-07-20T08:40:57;25.30;90.70
16076;DHT22;8142;48.242;11.644;2023-07-20T08:43:26;25.30;90.90
16076;DHT22;8142;48.242;11.644;2023-07-20T08:45:54;25.30;90.70
16076;DHT22;8142;48.242;11.644;2023-07-20T08:48:21;25.40;90.30
16076;DHT22;8142;48.242;11.644;2023-07-20T08:50:49;25.40;90.40
16076;DHT22;8142;48.242;11.644;2023-07-20T08:53:16;25.40;90.30
16076;DHT22;8142;48.242;11.644;2023-07-20T08:55:45;25.30;91.00
16076;DHT22;8142;48.242;11.644;2023-07-20T08:58:18;25.30;94.70
16076;DHT22;8142;48.242;11.644;2023-07-20T09:00:47;25.30;91.60
16076;DHT22;8142;48.242;11.644;2023-07-20T09:03:16;25.30;90.70
16076;DHT22;8142;48.242;11.644;2023-07-20T09:05:42;25.30;90.40
16076;DHT22;8142;48.242;11.644;2023-07-20T09:08:08;25.30;90.30
16076;DHT22;8142;48.242;11.644;2023-07-20T09:10:34;25.30;90.50
16076;DHT22;8142;48.242;11.644;2023-07-20T09:12:59;25.20;90.20
16076;DHT22;8142;48.242;11.644;2023-07-20T09:15:25;25.20;90.50
16076;DHT22;8142;48.242;11.644;2023-07-20T09:17:52;25.20;90.50
16076;DHT22;8142;48.242;11.644;2023-07-20T09:20:21;25.20;90.30
16076;DHT22;8142;48.242;11.644;2023-07-20T09:22:47;25.20;90.10
16076;DHT22;8142;48.242;11.644;2023-07-20T09:25:14;25.20;90.00
16076;DHT22;8142;48.242;11.644;2023-07-20T09:27:45;25.20;93.40
16076;DHT22;8142;48.242;11.644;2023-07-20T09:30:14;25.20;93.60
16076;DHT22;8142;48.242;11.644;2023-07-20T09:32:48;25.20;90.50
16076;DHT22;8142;48.242;11.644;2023-07-20T09:35:21;25.30;90.50
16076;DHT22;8142;48.242;11.644;2023-07-20T09:37:59;25.20;89.80
16076;DHT22;8142;48.242;11.644;2023-07-20T09:40:26;25.10;89.50
16076;DHT22;8142;48.242;11.644;2023-07-20T09:42:54;25.10;89.80
16076;DHT22;8142;48.242;11.644;2023-07-20T09:48:05;25.00;90.00
16076;DHT22;8142;48.242;11.644;2023-07-20T09:50:33;25.00;89.90
16076;DHT22;8142;48.242;11.644;2023-07-20T09:53:00;25.00;89.30
16076;DHT22;8142;48.242;11.644;2023-07-20T09:55:29;24.90;90.00
16076;DHT22;8142;48.242;11.644;2023-07-20T09:57:56;25.00;92.90
16076;DHT22;8142;48.242;11.644;2023-07-20T10:00:22;25.00;92.30
16076;DHT22;8142;48.242;11.644;2023-07-20T10:02:49;25.00;89.90
16076;DHT22;8142;48.242;11.644;2023-07-20T10:05:17;25.00;90.00
16076;DHT22;8142;48.242;11.644;2023-07-20T10:07:48;25.00;90.20
16076;DHT22;8142;48.242;11.644;2023-07-20T10:10:19;25.00;90.00
16076;DHT22;8142;48.242;11.644;2023-07-20T10:12:48;25.00;90.00
16076;DHT22;8142;48.242;11.644;2023-07-20T10:15:33;25.10;89.70
16076;DHT22;8142;48.242;11.644;2023-07-20T10:20:27;25.00;89.60
16076;DHT22;8142;48.242;11.644;2023-07-20T10:22:54;25.00;89.40
16076;DHT22;8142;48.242;11.644;2023-07-20T10:25:23;25.00;90.00
16076;DHT22;8142;48.242;11.644;2023-07-20T10:27:49;24.90;93.40
16076;DHT22;8142;48.242;11.644;2023-07-20T10:30:16;24.90;90.10
16076;DHT22;8142;48.242;11.644;2023-07-20T10:32:43;24.90;88.60
16076;DHT22;8142;48.242;11.644;2023-07-20T10:35:17;24.90;88.60
16076;DHT22;8142;48.242;11.644;2023-07-20T10:37:54;24.90;88.20
16076;DHT22;8142;48.242;11.644;2023-07-20T10:40:34;24.90;88.60
16076;DHT22;8142;48.242;11.644;2023-07-20T10:48:13;24.80;89.40
16076;DHT22;8142;48.242;11.644;2023-07-20T10:50:41;24.80;89.30
16076;DHT22;8142;48.242;11.644;2023-07-20T10:53:14;24.80;89.70
16076;DHT22;8142;48.242;11.644;2023-07-20T10:55:43;24.80;89.80
16076;DHT22;8142;48.242;11.644;2023-07-20T10:58:12;24.90;94.40
16076;DHT22;8142;48.242;11.644;2023-07-20T11:01:03;24.90;92.60
16076;DHT22;8142;48.242;11.644;2023-07-20T11:03:39;24.90;90.30
16076;DHT22;8142;48.242;11.644;2023-07-20T11:11:32;24.90;90.00
16076;DHT22;8142;48.242;11.644;2023-07-20T11:14:00;24.90;90.00
16076;DHT22;8142;48.242;11.644;2023-07-20T11:16:44;24.90;89.70
16076;DHT22;8142;48.242;11.644;2023-07-20T11:19:20;24.90;90.00
16076;DHT22;8142;48.242;11.644;2023-07-20T11:21:50;25.00;90.00
16076;DHT22;8142;48.242;11.644;2023-07-20T11:24:17;25.00;90.00
16076;DHT22;8142;48.242;11.644;2023-07-20T11:26:53;25.00;93.20
16076;DHT22;8142;48.242;11.644;2023-07-20T11:29:21;25.00;94.70
16076;DHT22;8142;48.242;11.644;2023-07-20T11:31:47;25.00;90.60
16076;DHT22;8142;48.242;11.644;2023-07-20T11:34:15;25.10;90.60
16076;DHT22;8142;48.242;11.644;2023-07-20T11:36:46;25.10;90.20
16076;DHT22;8142;48.242;11.644;2023-07-20T11:39:14;25.10;90.10
16076;DHT22;8142;48.242;11.644;2023-07-20T11:41:53;25.10;90.20
16076;DHT22;8142;48.242;11.644;2023-07-20T11:44:24;25.10;90.10
16076;DHT22;8142;48.242;11.644;2023-07-20T11:47:05;25.10;90.10
16076;DHT22;8142;48.242;11.644;2023-07-20T11:49:50;25.10;90.10
16076;DHT22;8142;48.242;11.644;2023-07-20T11:52:22;25.20;90.20
16076;DHT22;8142;48.242;11.644;2023-07-20T11:54:49;25.30;90.10
16076;DHT22;8142;48.242;11.644;2023-07-20T11:57:21;25.30;92.20
16076;DHT22;8142;48.242;11.644;2023-07-20T11:59:57;25.30;92.50
16076;DHT22;8142;48.242;11.644;2023-07-20T12:02:29;25.40;90.20
16076;DHT22;8142;48.242;11.644;2023-07-20T12:04:55;25.50;89.70
16076;DHT22;8142;48.242;11.644;2023-07-20T12:07:27;25.50;89.70
16076;DHT22;8142;48.242;11.644;2023-07-20T12:10:06;25.60;90.10
16076;DHT22;8142;48.242;11.644;2023-07-20T12:12:34;25.60;89.40
16076;DHT22;8142;48.242;11.644;2023-07-20T12:17:45;25.60;89.00
16076;DHT22;8142;48.242;11.644;2023-07-20T12:20:12;25.60;89.30
16076;DHT22;8142;48.242;11.644;2023-07-20T12:22:43;25.60;89.00
16076;DHT22;8142;48.242;11.644;2023-07-20T12:25:10;25.50;89.00
16076;DHT22;8142;48.242;11.644;2023-07-20T12:27:36;25.50;92.00
16076;DHT22;8142;48.242;11.644;2023-07-20T12:30:05;25.50;92.20
16076;DHT22;8142;48.242;11.644;2023-07-20T12:32:31;25.50;90.00
16076;DHT22;8142;48.242;11.644;2023-07-20T12:34:57;25.50;90.30
16076;DHT22;8142;48.242;11.644;2023-07-20T12:37:23;25.50;89.80
16076;DHT22;8142;48.242;11.644;2023-07-20T12:39:49;25.60;89.90
16076;DHT22;8142;48.242;11.644;2023-07-20T12:42:15;25.50;89.90
16076;DHT22;8142;48.242;11.644;2023-07-20T12:44:42;25.50;90.10
16076;DHT22;8142;48.242;11.644;2023-07-20T12:47:08;25.50;90.00
16076;DHT22;8142;48.242;11.644;2023-07-20T12:49:35;25.50;89.50
16076;DHT22;8142;48.242;11.644;2023-07-20T12:52:01;25.50;89.90
16076;DHT22;8142;48.242;11.644;2023-07-20T12:54:28;25.50;89.60
16076;DHT22;8142;48.242;11.644;2023-07-20T12:56:54;25.60;90.90
16076;DHT22;8142;48.242;11.644;2023-07-20T12:59:20;25.60;92.40
16076;DHT22;8142;48.242;11.644;2023-07-20T13:01:45;25.60;90.30
16076;DHT22;8142;48.242;11.644;2023-07-20T13:04:11;25.60;88.80
16076;DHT22;8142;48.242;11.644;2023-07-20T13:06:37;25.60;89.90
16076;DHT22;8142;48.242;11.644;2023-07-20T13:09:03;25.70;89.70
16076;DHT22;8142;48.242;11.644;2023-07-20T13:11:30;25.70;89.40
16076;DHT22;8142;48.242;11.644;2023-07-20T13:13:56;25.70;88.60
16076;DHT22;8142;48.242;11.644;2023-07-20T13:16:22;25.70;88.60
16076;DHT22;8142;48.242;11.644;2023-07-20T13:18:48;25.70;89.80
16076;DHT22;8142;48.242;11.644;2023-07-20T13:21:14;25.70;89.10
16076;DHT22;8142;48.242;11.644;2023-07-20T13:23:41;25.70;87.70
16076;DHT22;8142;48.242;11.644;2023-07-20T13:26:07;25.80;87.80
16076;DHT22;8142;48.242;11.644;2023-07-20T13:28:33;25.80;92.40
16076;DHT22;8142;48.242;11.644;2023-07-20T13:30:59;25.80;91.10
16076;DHT22;8142;48.242;11.644;2023-07-20T13:33:25;25.80;89.80
16076;DHT22;8142;48.242;11.644;2023-07-20T13:35:51;25.70;89.20
16076;DHT22;8142;48.242;11.644;2023-07-20T13:38:17;25.60;89.80
16076;DHT22;8142;48.242;11.644;2023-07-20T13:40:44;25.70;90.00
16076;DHT22;8142;48.242;11.644;2023-07-20T13:43:10;25.60;90.10
16076;DHT22;8142;48.242;11.644;2023-07-20T13:45:36;25.60;89.80
16076;DHT22;8142;48.242;11.644;2023-07-20T13:48:02;25.50;89.60
16076;DHT22;8142;48.242;11.644;2023-07-20T13:50:28;25.50;89.60
16076;DHT22;8142;48.242;11.644;2023-07-20T13:52:56;25.50;89.60
16076;DHT22;8142;48.242;11.644;2023-07-20T13:55:21;25.50;89.00
16076;DHT22;8142;48.242;11.644;2023-07-20T13:57:47;25.40;93.90
16076;DHT22;8142;48.242;11.644;2023-07-20T14:00:13;25.40;94.50
16076;DHT22;8142;48.242;11.644;2023-07-20T14:02:39;25.40;90.50
16076;DHT22;8142;48.242;11.644;2023-07-20T14:05:05;25.40;90.40
16076;DHT22;8142;48.242;11.644;2023-07-20T14:07:31;25.30;90.50
16076;DHT22;8142;48.242;11.644;2023-07-20T14:09:57;25.30;90.40
16076;DHT22;8142;48.242;11.644;2023-07-20T14:12:24;25.30;90.20
16076;DHT22;8142;48.242;11.644;2023-07-20T14:14:50;25.30;90.10
16076;DHT22;8142;48.242;11.644;2023-07-20T14:17:16;25.20;90.00
16076;DHT22;8142;48.242;11.644;2023-07-20T14:19:42;25.20;90.00
16076;DHT22;8142;48.242;11.644;2023-07-20T14:22:10;25.10;89.90
16076;DHT22;8142;48.242;11.644;2023-07-20T14:24:36;25.10;89.80
16076;DHT22;8142;48.242;11.644;2023-07-20T14:27:01;25.10;91.80
16076;DHT22;8142;48.242;11.644;2023-07-20T14:29:28;25.10;94.40
16076;DHT22;8142;48.242;11.644;2023-07-20T14:31:57;25.10;91.20
16076;DHT22;8142;48.242;11.644;2023-07-20T14:34:23;25.00;90.40
16076;DHT22;8142;48.242;11.644;2023-07-20T14:36:49;25.00;90.40
16076;DHT22;8142;48.242;11.644;2023-07-20T14:39:15;25.00;90.00
16076;DHT22;8142;48.242;11.644;2023-07-20T14:41:41;25.00;89.70
16076;DHT22;8142;48.242;11.644;2023-07-20T14:44:07;25.00;89.90
16076;DHT22;8142;48.242;11.644;2023-07-20T14:46:33;25.00;89.60
16076;DHT22;8142;48.242;11.644;2023-07-20T14:48:59;25.00;89.50
16076;DHT22;8142;48.242;11.644;2023-07-20T14:51:25;25.00;90.40
16076;DHT22;8142;48.242;11.644;2023-07-20T14:53:52;25.00;90.10
16076;DHT22;8142;48.242;11.644;2023-07-20T14:56:17;25.10;90.20
16076;DHT22;8142;48.242;11.644;2023-07-20T14:58:43;25.10;91.70
16076;DHT22;8142;48.242;11.644;2023-07-20T15:01:09;25.10;90.30
16076;DHT22;8142;48.242;11.644;2023-07-20T15:03:35;25.10;89.50
16076;DHT22;8142;48.242;11.644;2023-07-20T15:06:01;25.10;89.00
16076;DHT22;8142;48.242;11.644;2023-07-20T15:08:28;25.00;89.00
16076;DHT22;8142;48.242;11.644;2023-07-20T15:10:54;24.90;89.30
16076;DHT22;8142;48.242;11.644;2023-07-20T15:13:20;24.80;90.00
16076;DHT22;8142;48.242;11.644;2023-07-20T15:15:47;24.70;89.50
16076;DHT22;8142;48.242;11.644;2023-07-20T15:18:14;24.60;89.40
16076;DHT22;8142;48.242;11.644;2023-07-20T15:20:41;24.60;89.80
16076;DHT22;8142;48.242;11.644;2023-07-20T15:23:07;24.50;89.90
16076;DHT22;8142;48.242;11.644;2023-07-20T15:25:33;24.50;90.10
16076;DHT22;8142;48.242;11.644;2023-07-20T15:27:59;24.50;90.30
16076;DHT22;8142;48.242;11.644;2023-07-20T15:30:27;24.50;92.40
16076;DHT22;8142;48.242;11.644;2023-07-20T15:32:53;24.50;90.70
16076;DHT22;8142;48.242;11.644;2023-07-20T15:35:21;24.40;90.40
16076;DHT22;8142;48.242;11.644;2023-07-20T15:37:47;24.50;90.70
16076;DHT22;8142;48.242;11.644;2023-07-20T15:40:13;24.50;90.90
16076;DHT22;8142;48.242;11.644;2023-07-20T15:42:39;24.50;90.40
16076;DHT22;8142;48.242;11.644;2023-07-20T15:45:05;24.60;90.10
16076;DHT22;8142;48.242;11.644;2023-07-20T15:47:31;24.60;90.40
16076;DHT22;8142;48.242;11.644;2023-07-20T15:49:58;24.70;90.60
16076;DHT22;8142;48.242;11.644;2023-07-20T15:52:24;24.70;90.30
16076;DHT22;8142;48.242;11.644;2023-07-20T15:54:51;24.70;90.20
16076;DHT22;8142;48.242;11.644;2023-07-20T15:57:18;24.80;93.70
16076;DHT22;8142;48.242;11.644;2023-07-20T15:59:44;24.80;94.40